sensor_id;sensor_type;location;lat;lon;timestamp;pressure;altitude;pressure_sealevel;temperature;humidity
67803;BME280;72185;51.378;-1.342;2023-08-24T00:00:27;100306.57;;;24.37;37.66
67803;BME280;72185;51.378;-1.342;2023-08-24T00:02:52;100302.71;;;24.28;37.81
67803;BME280;72185;51.378;-1.342;2023-08-24T00:05:18;100306.31;;;24.51;37.79
67803;BME280;72185;51.378;-1.342;2023-08-24T00:07:43;100302.57;;;24.49;37.79
67803;BME280;72185;51.378;-1.342;2023-08-24T00:10:09;100300.49;;;24.71;37.86
67803;BME280;72185;51.378;-1.342;2023-08-24T00:12:34;100302.62;;;24.78;37.72
67803;BME280;72185;51.378;-1.342;2023-08-24T00:14:59;100306.09;;;24.75;37.75
67803;BME280;72185;51.378;-1.342;2023-08-24T00:17:25;100305.35;;;24.45;37.80
67803;BME280;72185;51.378;-1.342;2023-08-24T00:19:50;100302.84;;;24.67;37.84
67803;BME280;72185;51.378;-1.342;2023-08-24T00:22:15;100301.84;;;24.39;37.85
67803;BME280;72185;51.378;-1.342;2023-08-24T00:24:41;100296.71;;;24.33;37.92
67803;BME280;72185;51.378;-1.342;2023-08-24T00:27:06;100292.54;;;24.61;37.88
67803;BME280;72185;51.378;-1.342;2023-08-24T00:29:31;100290.87;;;24.63;37.84
67803;BME280;72185;51.378;-1.342;2023-08-24T00:31:56;100290.28;;;24.29;37.93
67803;BME280;72185;51.378;-1.342;2023-08-24T00:34:22;100291.56;;;24.60;37.87
67803;BME280;72185;51.378;-1.342;2023-08-24T00:36:47;100291.44;;;24.63;37.80
67803;BME280;72185;51.378;-1.342;2023-08-24T00:39:13;100292.23;;;24.57;37.88
67803;BME280;72185;51.378;-1.342;2023-08-24T00:41:38;100292.59;;;24.31;37.86
67803;BME280;72185;51.378;-1.342;2023-08-24T00:44:03;100293.02;;;24.62;37.78
67803;BME280;72185;51.378;-1.342;2023-08-24T00:46:29;100290.95;;;24.30;37.86
67803;BME280;72185;51.378;-1.342;2023-08-24T00:48:54;100288.37;;;24.24;37.93
67803;BME280;72185;51.378;-1.342;2023-08-24T00:51:19;100283.53;;;24.16;38.01
67803;BME280;72185;51.378;-1.342;2023-08-24T00:53:45;100274.67;;;24.12;38.05
67803;BME280;72185;51.378;-1.342;2023-08-24T00:56:10;100261.53;;;24.40;38.01
67803;BME280;72185;51.378;-1.342;2023-08-24T00:58:35;100254.70;;;24.39;38.01
67803;BME280;72185;51.378;-1.342;2023-08-24T01:01:01;100253.62;;;24.14;37.99
67803;BME280;72185;51.378;-1.342;2023-08-24T01:03:26;100242.65;;;24.12;38.02
67803;BME280;72185;51.378;-1.342;2023-08-24T01:05:51;100237.93;;;24.25;38.18
67803;BME280;72185;51.378;-1.342;2023-08-24T01:08:17;100237.43;;;24.14;37.96
67803;BME280;72185;51.378;-1.342;2023-08-24T01:10:47;100233.87;;;24.09;38.00
67803;BME280;72185;51.378;-1.342;2023-08-24T01:13:09;100232.55;;;24.34;38.03
67803;BME280;72185;51.378;-1.342;2023-08-24T01:15:37;100229.23;;;24.12;37.93
67803;BME280;72185;51.378;-1.342;2023-08-24T01:18:01;100222.29;;;24.26;38.10
67803;BME280;72185;51.378;-1.342;2023-08-24T01:20:24;100210.30;;;24.01;38.06
67803;BME280;72185;51.378;-1.342;2023-08-24T01:22:55;100203.46;;;24.26;38.08
67803;BME280;72185;51.378;-1.342;2023-08-24T01:25:17;100195.08;;;24.23;38.13
67803;BME280;72185;51.378;-1.342;2023-08-24T01:27:40;100186.39;;;24.45;38.11
67803;BME280;72185;51.378;-1.342;2023-08-24T01:30:06;100175.28;;;24.17;38.17
67803;BME280;72185;51.378;-1.342;2023-08-24T01:32:30;100164.28;;;24.42;38.13
67803;BME280;72185;51.378;-1.342;2023-08-24T01:34:55;100160.46;;;24.13;38.22
67803;BME280;72185;51.378;-1.342;2023-08-24T01:37:21;100150.14;;;23.92;38.09
67803;BME280;72185;51.378;-1.342;2023-08-24T01:39:54;100130.41;;;24.12;38.16
67803;BME280;72185;51.378;-1.342;2023-08-24T01:42:17;100132.26;;;23.80;38.25
67803;BME280;72185;51.378;-1.342;2023-08-24T01:44:39;100145.23;;;24.18;38.09
67803;BME280;72185;51.378;-1.342;2023-08-24T01:47:04;100160.92;;;23.98;37.99
67803;BME280;72185;51.378;-1.342;2023-08-24T01:49:28;100172.79;;;24.24;37.95
67803;BME280;72185;51.378;-1.342;2023-08-24T01:51:53;100180.06;;;23.78;37.94
67803;BME280;72185;51.378;-1.342;2023-08-24T01:54:18;100183.77;;;24.23;37.99
67803;BME280;72185;51.378;-1.342;2023-08-24T01:56:44;100194.05;;;24.26;37.90
67803;BME280;72185;51.378;-1.342;2023-08-24T01:59:09;100199.36;;;24.29;37.86
67803;BME280;72185;51.378;-1.342;2023-08-24T02:01:34;100195.01;;;24.19;38.01
67803;BME280;72185;51.378;-1.342;2023-08-24T02:04:00;100183.29;;;24.15;38.05
67803;BME280;72185;51.378;-1.342;2023-08-24T02:06:25;100191.56;;;23.84;38.08
67803;BME280;72185;51.378;-1.342;2023-08-24T02:08:50;100202.74;;;24.10;38.12
67803;BME280;72185;51.378;-1.342;2023-08-24T02:11:16;100195.39;;;24.11;38.12
67803;BME280;72185;51.378;-1.342;2023-08-24T02:13:41;100191.32;;;24.51;37.82
67803;BME280;72185;51.378;-1.342;2023-08-24T02:16:08;100189.88;;;24.16;37.99
67803;BME280;72185;51.378;-1.342;2023-08-24T02:18:32;100192.18;;;24.19;37.88
67803;BME280;72185;51.378;-1.342;2023-08-24T02:20:57;100193.53;;;24.05;38.11
67803;BME280;72185;51.378;-1.342;2023-08-24T02:23:22;100194.07;;;24.03;38.13
67803;BME280;72185;51.378;-1.342;2023-08-24T02:25:48;100183.77;;;23.71;38.20
67803;BME280;72185;51.378;-1.342;2023-08-24T02:28:13;100170.53;;;24.15;37.74
67803;BME280;72185;51.378;-1.342;2023-08-24T02:30:38;100151.57;;;23.92;38.25
67803;BME280;72185;51.378;-1.342;2023-08-24T02:33:04;100135.88;;;23.68;38.58
67803;BME280;72185;51.378;-1.342;2023-08-24T02:35:29;100128.81;;;23.65;38.59
67803;BME280;72185;51.378;-1.342;2023-08-24T02:37:54;100130.32;;;23.75;38.46
67803;BME280;72185;51.378;-1.342;2023-08-24T02:40:20;100128.72;;;23.77;38.41
67803;BME280;72185;51.378;-1.342;2023-08-24T02:42:45;100110.13;;;23.78;38.39
67803;BME280;72185;51.378;-1.342;2023-08-24T02:45:10;100101.45;;;23.90;38.52
67803;BME280;72185;51.378;-1.342;2023-08-24T02:47:36;100104.85;;;23.71;38.48
67803;BME280;72185;51.378;-1.342;2023-08-24T02:50:01;100117.07;;;23.90;38.16
67803;BME280;72185;51.378;-1.342;2023-08-24T02:52:26;100128.94;;;24.16;38.12
67803;BME280;72185;51.378;-1.342;2023-08-24T02:54:52;100130.80;;;23.84;38.24
67803;BME280;72185;51.378;-1.342;2023-08-24T02:57:17;100134.88;;;23.88;38.15
67803;BME280;72185;51.378;-1.342;2023-08-24T02:59:42;100150.67;;;23.98;37.87
67803;BME280;72185;51.378;-1.342;2023-08-24T03:02:08;100155.51;;;23.86;38.18
67803;BME280;72185;51.378;-1.342;2023-08-24T03:04:33;100157.32;;;24.11;38.03
67803;BME280;72185;51.378;-1.342;2023-08-24T03:06:58;100140.29;;;23.78;38.29
67803;BME280;72185;51.378;-1.342;2023-08-24T03:09:24;100127.27;;;23.54;38.24
67803;BME280;72185;51.378;-1.342;2023-08-24T03:11:49;100133.64;;;23.71;38.37
67803;BME280;72185;51.378;-1.342;2023-08-24T03:14:15;100162.90;;;23.81;38.19
67803;BME280;72185;51.378;-1.342;2023-08-24T03:16:40;100158.20;;;23.89;38.09
67803;BME280;72185;51.378;-1.342;2023-08-24T03:19:05;100128.70;;;23.71;38.32
67803;BME280;72185;51.378;-1.342;2023-08-24T03:21:31;100092.01;;;23.51;38.61
67803;BME280;72185;51.378;-1.342;2023-08-24T03:23:56;100096.31;;;23.75;38.24
67803;BME280;72185;51.378;-1.342;2023-08-24T03:26:26;100111.15;;;23.78;38.21
67803;BME280;72185;51.378;-1.342;2023-08-24T03:28:47;100117.26;;;23.74;38.25
67803;BME280;72185;51.378;-1.342;2023-08-24T03:31:12;100103.96;;;23.70;38.27
67803;BME280;72185;51.378;-1.342;2023-08-24T03:33:37;100091.59;;;23.86;38.32
67803;BME280;72185;51.378;-1.342;2023-08-24T03:36:03;100101.52;;;23.61;38.40
67803;BME280;72185;51.378;-1.342;2023-08-24T03:38:28;100098.67;;;23.68;38.31
67803;BME280;72185;51.378;-1.342;2023-08-24T03:41:00;100081.32;;;23.56;38.44
67803;BME280;72185;51.378;-1.342;2023-08-24T03:43:19;100068.97;;;23.60;38.41
67803;BME280;72185;51.378;-1.342;2023-08-24T03:45:44;100072.79;;;23.53;38.48
67803;BME280;72185;51.378;-1.342;2023-08-24T03:48:09;100079.34;;;23.56;38.45
67803;BME280;72185;51.378;-1.342;2023-08-24T03:50:35;100087.14;;;23.70;38.23
67803;BME280;72185;51.378;-1.342;2023-08-24T03:53:00;100098.42;;;23.70;38.23
67803;BME280;72185;51.378;-1.342;2023-08-24T03:55:26;100105.83;;;23.67;38.20
67803;BME280;72185;51.378;-1.342;2023-08-24T03:57:51;100105.83;;;23.72;38.17
67803;BME280;72185;51.378;-1.342;2023-08-24T04:00:16;100094.32;;;23.82;38.33
67803;BME280;72185;51.378;-1.342;2023-08-24T04:02:41;100085.41;;;23.89;38.56
67803;BME280;72185;51.378;-1.342;2023-08-24T04:05:07;100092.22;;;23.60;38.25
67803;BME280;72185;51.378;-1.342;2023-08-24T04:07:32;100098.85;;;23.55;38.34
67803;BME280;72185;51.378;-1.342;2023-08-24T04:09:57;100094.43;;;23.68;38.19
67803;BME280;72185;51.378;-1.342;2023-08-24T04:12:23;100095.38;;;23.60;38.31
67803;BME280;72185;51.378;-1.342;2023-08-24T04:14:48;100093.25;;;23.54;38.37
67803;BME280;72185;51.378;-1.342;2023-08-24T04:17:14;100109.12;;;23.62;38.21
67803;BME280;72185;51.378;-1.342;2023-08-24T04:19:39;100114.64;;;23.52;38.36
67803;BME280;72185;51.378;-1.342;2023-08-24T04:22:04;100101.30;;;23.89;38.45
67803;BME280;72185;51.378;-1.342;2023-08-24T04:24:30;100083.61;;;23.52;38.18
67803;BME280;72185;51.378;-1.342;2023-08-24T04:26:55;100086.44;;;23.60;38.52
67803;BME280;72185;51.378;-1.342;2023-08-24T04:29:20;100098.32;;;23.56;38.10
67803;BME280;72185;51.378;-1.342;2023-08-24T04:31:46;100095.63;;;24.03;37.97
67803;BME280;72185;51.378;-1.342;2023-08-24T04:34:11;100089.04;;;23.60;38.47
67803;BME280;72185;51.378;-1.342;2023-08-24T04:36:36;100078.96;;;23.84;38.42
67803;BME280;72185;51.378;-1.342;2023-08-24T04:39:02;100076.35;;;23.69;38.61
67803;BME280;72185;51.378;-1.342;2023-08-24T04:41:27;100063.29;;;23.24;38.66
67803;BME280;72185;51.378;-1.342;2023-08-24T04:43:52;100060.06;;;23.42;38.71
67803;BME280;72185;51.378;-1.342;2023-08-24T04:46:18;100058.68;;;23.44;38.33
67803;BME280;72185;51.378;-1.342;2023-08-24T04:48:43;100065.51;;;23.40;38.41
67803;BME280;72185;51.378;-1.342;2023-08-24T04:51:08;100062.30;;;23.60;38.33
67803;BME280;72185;51.378;-1.342;2023-08-24T04:53:34;100059.95;;;23.21;38.67
67803;BME280;72185;51.378;-1.342;2023-08-24T04:55:59;100045.47;;;23.35;38.40
67803;BME280;72185;51.378;-1.342;2023-08-24T04:58:25;100033.72;;;23.16;38.69
67803;BME280;72185;51.378;-1.342;2023-08-24T05:00:50;100019.70;;;23.31;38.78
67803;BME280;72185;51.378;-1.342;2023-08-24T05:03:16;100022.70;;;23.33;38.28
67803;BME280;72185;51.378;-1.342;2023-08-24T05:05:41;100033.04;;;23.42;38.28
67803;BME280;72185;51.378;-1.342;2023-08-24T05:08:07;100054.95;;;23.33;38.42
67803;BME280;72185;51.378;-1.342;2023-08-24T05:10:33;100067.05;;;23.65;38.16
67803;BME280;72185;51.378;-1.342;2023-08-24T05:12:57;100076.45;;;23.38;37.97
67803;BME280;72185;51.378;-1.342;2023-08-24T05:15:23;100061.56;;;23.35;38.21
67803;BME280;72185;51.378;-1.342;2023-08-24T05:17:48;100056.44;;;23.34;38.06
67803;BME280;72185;51.378;-1.342;2023-08-24T05:20:13;100051.53;;;23.61;38.26
67803;BME280;72185;51.378;-1.342;2023-08-24T05:22:39;100056.47;;;23.42;38.57
67803;BME280;72185;51.378;-1.342;2023-08-24T05:25:05;100065.14;;;23.36;38.06
67803;BME280;72185;51.378;-1.342;2023-08-24T05:27:29;100072.73;;;23.36;37.99
67803;BME280;72185;51.378;-1.342;2023-08-24T05:29:55;100088.47;;;23.83;38.25
67803;BME280;72185;51.378;-1.342;2023-08-24T05:32:20;100088.32;;;23.58;38.32
67803;BME280;72185;51.378;-1.342;2023-08-24T05:34:45;100077.41;;;23.51;38.41
67803;BME280;72185;51.378;-1.342;2023-08-24T05:37:11;100070.23;;;23.36;38.58
67803;BME280;72185;51.378;-1.342;2023-08-24T05:39:36;100065.97;;;23.25;38.43
67803;BME280;72185;51.378;-1.342;2023-08-24T05:42:01;100067.46;;;23.34;38.18
67803;BME280;72185;51.378;-1.342;2023-08-24T05:44:27;100071.13;;;23.59;38.28
67803;BME280;72185;51.378;-1.342;2023-08-24T05:46:52;100065.71;;;23.68;38.46
67803;BME280;72185;51.378;-1.342;2023-08-24T05:49:17;100056.41;;;23.71;38.13
67803;BME280;72185;51.378;-1.342;2023-08-24T05:51:43;100057.26;;;23.24;38.34
67803;BME280;72185;51.378;-1.342;2023-08-24T05:54:08;100059.34;;;23.59;38.20
67803;BME280;72185;51.378;-1.342;2023-08-24T05:56:33;100076.26;;;23.41;38.11
67803;BME280;72185;51.378;-1.342;2023-08-24T05:58:59;100085.68;;;23.52;38.31
67803;BME280;72185;51.378;-1.342;2023-08-24T06:01:24;100077.87;;;23.64;38.44
67803;BME280;72185;51.378;-1.342;2023-08-24T06:03:50;100055.79;;;23.17;38.53
67803;BME280;72185;51.378;-1.342;2023-08-24T06:06:15;100013.71;;;23.14;38.87
67803;BME280;72185;51.378;-1.342;2023-08-24T06:08:40;100008.28;;;23.11;38.89
67803;BME280;72185;51.378;-1.342;2023-08-24T06:11:06;100020.96;;;23.07;38.64
67803;BME280;72185;51.378;-1.342;2023-08-24T06:13:31;100044.07;;;23.43;38.44
67803;BME280;72185;51.378;-1.342;2023-08-24T06:15:56;100065.70;;;23.48;38.23
67803;BME280;72185;51.378;-1.342;2023-08-24T06:18:22;100065.84;;;23.77;38.24
67803;BME280;72185;51.378;-1.342;2023-08-24T06:20:47;100056.27;;;23.68;38.40
67803;BME280;72185;51.378;-1.342;2023-08-24T06:23:12;100049.87;;;23.43;38.44
67803;BME280;72185;51.378;-1.342;2023-08-24T06:25:38;100046.29;;;23.37;38.50
67803;BME280;72185;51.378;-1.342;2023-08-24T06:28:04;100039.67;;;23.54;38.27
67803;BME280;72185;51.378;-1.342;2023-08-24T06:30:28;100029.68;;;23.56;38.53
67803;BME280;72185;51.378;-1.342;2023-08-24T06:32:54;100035.58;;;23.56;38.50
67803;BME280;72185;51.378;-1.342;2023-08-24T06:35:19;100048.14;;;23.22;38.18
67803;BME280;72185;51.378;-1.342;2023-08-24T06:37:44;100014.12;;;23.25;38.65
67803;BME280;72185;51.378;-1.342;2023-08-24T06:40:11;100016.93;;;23.34;38.56
67803;BME280;72185;51.378;-1.342;2023-08-24T06:42:35;100021.22;;;23.63;38.48
67803;BME280;72185;51.378;-1.342;2023-08-24T06:45:01;100028.67;;;23.74;38.28
67803;BME280;72185;51.378;-1.342;2023-08-24T06:47:26;100027.76;;;23.23;38.40
67803;BME280;72185;51.378;-1.342;2023-08-24T06:49:51;100017.33;;;23.53;38.58
67803;BME280;72185;51.378;-1.342;2023-08-24T06:52:17;99993.27;;;23.52;38.57
67803;BME280;72185;51.378;-1.342;2023-08-24T06:54:42;99985.95;;;23.65;38.32
67803;BME280;72185;51.378;-1.342;2023-08-24T06:57:07;99975.49;;;23.12;38.40
67803;BME280;72185;51.378;-1.342;2023-08-24T06:59:33;99973.11;;;23.04;38.63
67803;BME280;72185;51.378;-1.342;2023-08-24T07:01:58;99981.69;;;23.50;38.28
67803;BME280;72185;51.378;-1.342;2023-08-24T07:04:24;99978.59;;;23.43;38.36
67803;BME280;72185;51.378;-1.342;2023-08-24T07:06:49;99981.32;;;23.56;38.16
67803;BME280;72185;51.378;-1.342;2023-08-24T07:09:14;99999.69;;;23.53;38.15
67803;BME280;72185;51.378;-1.342;2023-08-24T07:11:40;100008.47;;;23.68;38.01
67803;BME280;72185;51.378;-1.342;2023-08-24T07:14:05;99984.14;;;23.42;38.05
67803;BME280;72185;51.378;-1.342;2023-08-24T07:16:31;99948.92;;;23.33;38.23
67803;BME280;72185;51.378;-1.342;2023-08-24T07:18:56;99948.90;;;24.18;37.35
67803;BME280;72185;51.378;-1.342;2023-08-24T07:21:21;99938.26;;;23.51;37.93
67803;BME280;72185;51.378;-1.342;2023-08-24T07:23:46;99929.96;;;23.55;38.19
67803;BME280;72185;51.378;-1.342;2023-08-24T07:26:12;99922.52;;;23.56;38.22
67803;BME280;72185;51.378;-1.342;2023-08-24T07:28:37;99925.26;;;23.50;38.28
67803;BME280;72185;51.378;-1.342;2023-08-24T07:31:07;99963.71;;;23.68;38.02
67803;BME280;72185;51.378;-1.342;2023-08-24T07:33:28;99990.97;;;23.74;37.94
67803;BME280;72185;51.378;-1.342;2023-08-24T07:35:53;99990.00;;;23.93;37.98
67803;BME280;72185;51.378;-1.342;2023-08-24T07:38:18;99967.42;;;23.34;38.20
67803;BME280;72185;51.378;-1.342;2023-08-24T07:40:44;99941.13;;;23.55;38.23
67803;BME280;72185;51.378;-1.342;2023-08-24T07:43:09;99920.26;;;22.98;38.67
67803;BME280;72185;51.378;-1.342;2023-08-24T07:45:34;99931.33;;;23.10;38.49
67803;BME280;72185;51.378;-1.342;2023-08-24T07:48:00;99919.02;;;23.01;38.53
67803;BME280;72185;51.378;-1.342;2023-08-24T07:50:25;99921.95;;;23.19;38.41
67803;BME280;72185;51.378;-1.342;2023-08-24T07:52:50;99899.02;;;23.41;38.35
67803;BME280;72185;51.378;-1.342;2023-08-24T07:55:16;99897.93;;;23.32;38.51
67803;BME280;72185;51.378;-1.342;2023-08-24T07:57:41;99880.31;;;23.57;38.45
67803;BME280;72185;51.378;-1.342;2023-08-24T08:00:07;99873.39;;;23.33;38.52
67803;BME280;72185;51.378;-1.342;2023-08-24T08:02:32;99875.81;;;23.45;38.41
67803;BME280;72185;51.378;-1.342;2023-08-24T08:04:57;99858.21;;;23.51;38.54
67803;BME280;72185;51.378;-1.342;2023-08-24T08:07:22;99851.47;;;23.13;38.45
67803;BME280;72185;51.378;-1.342;2023-08-24T08:09:47;99894.14;;;23.70;38.14
67803;BME280;72185;51.378;-1.342;2023-08-24T08:12:13;99909.02;;;23.56;38.11
67803;BME280;72185;51.378;-1.342;2023-08-24T08:14:38;99897.63;;;23.46;38.11
67803;BME280;72185;51.378;-1.342;2023-08-24T08:17:04;99900.77;;;23.50;38.06
67803;BME280;72185;51.378;-1.342;2023-08-24T08:19:29;99909.46;;;23.38;38.08
67803;BME280;72185;51.378;-1.342;2023-08-24T08:21:54;99928.38;;;24.00;37.80
67803;BME280;72185;51.378;-1.342;2023-08-24T08:24:20;99936.31;;;23.75;37.76
67803;BME280;72185;51.378;-1.342;2023-08-24T08:26:45;99931.18;;;24.15;37.57
67803;BME280;72185;51.378;-1.342;2023-08-24T08:29:10;99937.48;;;24.12;37.29
67803;BME280;72185;51.378;-1.342;2023-08-24T08:31:36;99945.44;;;24.43;37.14
67803;BME280;72185;51.378;-1.342;2023-08-24T08:34:01;99955.99;;;24.67;36.86
67803;BME280;72185;51.378;-1.342;2023-08-24T08:36:26;99949.75;;;24.42;36.62
67803;BME280;72185;51.378;-1.342;2023-08-24T08:38:51;99945.81;;;24.87;36.24
67803;BME280;72185;51.378;-1.342;2023-08-24T08:41:20;99947.86;;;24.77;36.00
67803;BME280;72185;51.378;-1.342;2023-08-24T08:43:42;99939.43;;;25.41;35.43
67803;BME280;72185;51.378;-1.342;2023-08-24T08:46:08;99931.68;;;25.40;35.38
67803;BME280;72185;51.378;-1.342;2023-08-24T08:48:34;99933.42;;;25.41;35.37
67803;BME280;72185;51.378;-1.342;2023-08-24T08:50:58;99940.85;;;24.84;36.07
67803;BME280;72185;51.378;-1.342;2023-08-24T08:53:24;99945.80;;;25.02;36.16
67803;BME280;72185;51.378;-1.342;2023-08-24T08:55:51;99945.27;;;25.24;36.17
67803;BME280;72185;51.378;-1.342;2023-08-24T08:58:14;99942.85;;;24.69;36.31
67803;BME280;72185;51.378;-1.342;2023-08-24T09:00:41;99933.90;;;24.70;36.30
67803;BME280;72185;51.378;-1.342;2023-08-24T09:03:05;99937.38;;;24.72;36.32
67803;BME280;72185;51.378;-1.342;2023-08-24T09:05:31;99943.10;;;25.10;36.39
67803;BME280;72185;51.378;-1.342;2023-08-24T09:07:56;99941.34;;;24.89;36.15
67803;BME280;72185;51.378;-1.342;2023-08-24T09:10:21;99941.84;;;25.34;36.08
67803;BME280;72185;51.378;-1.342;2023-08-24T09:12:46;99942.90;;;25.39;35.71
67803;BME280;72185;51.378;-1.342;2023-08-24T09:15:12;99944.23;;;25.66;35.31
67803;BME280;72185;51.378;-1.342;2023-08-24T09:17:42;99944.00;;;25.54;35.47
67803;BME280;72185;51.378;-1.342;2023-08-24T09:20:07;99950.53;;;25.58;35.44
67803;BME280;72185;51.378;-1.342;2023-08-24T09:22:28;99936.82;;;25.66;35.46
67803;BME280;72185;51.378;-1.342;2023-08-24T09:24:53;99934.45;;;25.61;35.47
67803;BME280;72185;51.378;-1.342;2023-08-24T09:27:19;99933.62;;;26.09;35.24
67803;BME280;72185;51.378;-1.342;2023-08-24T09:29:47;99926.40;;;25.78;35.35
67803;BME280;72185;51.378;-1.342;2023-08-24T09:32:09;99925.42;;;25.82;35.48
67803;BME280;72185;51.378;-1.342;2023-08-24T09:34:36;99933.68;;;25.91;35.33
67803;BME280;72185;51.378;-1.342;2023-08-24T09:37:00;99937.21;;;25.91;35.45
67803;BME280;72185;51.378;-1.342;2023-08-24T09:39:25;99945.12;;;26.04;35.32
67803;BME280;72185;51.378;-1.342;2023-08-24T09:41:50;99948.17;;;26.08;35.26
67803;BME280;72185;51.378;-1.342;2023-08-24T09:44:17;99943.12;;;26.18;35.09
67803;BME280;72185;51.378;-1.342;2023-08-24T09:46:42;99943.18;;;25.91;35.23
67803;BME280;72185;51.378;-1.342;2023-08-24T09:49:07;99945.76;;;26.30;35.09
67803;BME280;72185;51.378;-1.342;2023-08-24T09:51:33;99946.83;;;26.44;34.97
67803;BME280;72185;51.378;-1.342;2023-08-24T09:53:58;99946.82;;;26.44;35.00
67803;BME280;72185;51.378;-1.342;2023-08-24T09:56:24;99944.27;;;26.51;34.94
67803;BME280;72185;51.378;-1.342;2023-08-24T09:58:49;99941.45;;;26.45;35.06
67803;BME280;72185;51.378;-1.342;2023-08-24T10:01:13;99939.33;;;26.51;35.02
67803;BME280;72185;51.378;-1.342;2023-08-24T10:03:39;99941.44;;;26.48;35.05
67803;BME280;72185;51.378;-1.342;2023-08-24T10:06:04;99938.82;;;26.51;35.00
67803;BME280;72185;51.378;-1.342;2023-08-24T10:08:33;99933.84;;;26.25;34.88
67803;BME280;72185;51.378;-1.342;2023-08-24T10:10:56;99936.12;;;26.50;34.96
67803;BME280;72185;51.378;-1.342;2023-08-24T10:13:26;99938.21;;;26.25;34.94
67803;BME280;72185;51.378;-1.342;2023-08-24T10:15:45;99936.05;;;26.32;34.83
67803;BME280;72185;51.378;-1.342;2023-08-24T10:18:10;99937.96;;;26.25;34.96
67803;BME280;72185;51.378;-1.342;2023-08-24T10:20:35;99935.92;;;26.15;34.94
67803;BME280;72185;51.378;-1.342;2023-08-24T10:23:01;99938.70;;;26.73;34.78
67803;BME280;72185;51.378;-1.342;2023-08-24T10:25:26;99936.96;;;26.41;34.87
67803;BME280;72185;51.378;-1.342;2023-08-24T10:27:52;99935.91;;;26.69;34.84
67803;BME280;72185;51.378;-1.342;2023-08-24T10:30:17;99936.37;;;26.49;34.82
67803;BME280;72185;51.378;-1.342;2023-08-24T10:32:43;99939.84;;;26.54;34.75
67803;BME280;72185;51.378;-1.342;2023-08-24T10:35:08;99940.86;;;26.44;34.83
67803;BME280;72185;51.378;-1.342;2023-08-24T10:37:33;99946.02;;;26.52;34.84
67803;BME280;72185;51.378;-1.342;2023-08-24T10:39:58;99944.91;;;26.74;34.84
67803;BME280;72185;51.378;-1.342;2023-08-24T10:42:23;99942.26;;;26.60;34.79
67803;BME280;72185;51.378;-1.342;2023-08-24T10:44:49;99933.23;;;26.37;34.79
67803;BME280;72185;51.378;-1.342;2023-08-24T10:47:15;99933.04;;;26.66;34.72
67803;BME280;72185;51.378;-1.342;2023-08-24T10:49:40;99937.98;;;26.46;34.67
67803;BME280;72185;51.378;-1.342;2023-08-24T10:54:30;99936.83;;;26.68;34.65
67803;BME280;72185;51.378;-1.342;2023-08-24T10:56:55;99933.10;;;26.66;34.62
67803;BME280;72185;51.378;-1.342;2023-08-24T10:59:21;99930.69;;;26.89;34.69
67803;BME280;72185;51.378;-1.342;2023-08-24T11:01:54;99932.16;;;26.68;34.62
67803;BME280;72185;51.378;-1.342;2023-08-24T11:04:11;99924.57;;;26.93;34.63
67803;BME280;72185;51.378;-1.342;2023-08-24T11:09:06;99913.08;;;26.68;34.72
67803;BME280;72185;51.378;-1.342;2023-08-24T11:11:27;99905.44;;;26.74;34.64
67803;BME280;72185;51.378;-1.342;2023-08-24T11:18:43;99894.61;;;26.72;34.70
67803;BME280;72185;51.378;-1.342;2023-08-24T11:21:08;99891.90;;;26.79;34.62
67803;BME280;72185;51.378;-1.342;2023-08-24T11:23:34;99893.95;;;26.61;34.52
67803;BME280;72185;51.378;-1.342;2023-08-24T11:26:00;99898.13;;;26.95;34.76
67803;BME280;72185;51.378;-1.342;2023-08-24T11:28:26;99895.90;;;26.50;34.68
67803;BME280;72185;51.378;-1.342;2023-08-24T11:30:50;99910.26;;;26.74;34.66
67803;BME280;72185;51.378;-1.342;2023-08-24T11:33:16;99918.24;;;26.49;34.68
67803;BME280;72185;51.378;-1.342;2023-08-24T11:35:42;99908.38;;;26.69;34.69
67803;BME280;72185;51.378;-1.342;2023-08-24T11:38:05;99895.70;;;26.72;34.68
67803;BME280;72185;51.378;-1.342;2023-08-24T11:40:31;99884.78;;;26.74;34.69
67803;BME280;72185;51.378;-1.342;2023-08-24T11:42:56;99879.82;;;26.72;34.71
67803;BME280;72185;51.378;-1.342;2023-08-24T11:45:22;99876.52;;;26.67;34.78
67803;BME280;72185;51.378;-1.342;2023-08-24T11:47:47;99883.90;;;26.51;34.70
67803;BME280;72185;51.378;-1.342;2023-08-24T11:50:12;99885.18;;;26.72;34.68
67803;BME280;72185;51.378;-1.342;2023-08-24T11:52:39;99880.93;;;26.53;34.65
67803;BME280;72185;51.378;-1.342;2023-08-24T11:55:03;99867.44;;;26.54;34.64
67803;BME280;72185;51.378;-1.342;2023-08-24T11:57:28;99864.74;;;26.51;34.67
67803;BME280;72185;51.378;-1.342;2023-08-24T11:59:54;99864.33;;;26.78;34.65
67803;BME280;72185;51.378;-1.342;2023-08-24T12:02:19;99857.93;;;26.67;34.77
67803;BME280;72185;51.378;-1.342;2023-08-24T12:04:44;99856.55;;;26.68;34.77
67803;BME280;72185;51.378;-1.342;2023-08-24T12:07:10;99855.38;;;26.52;34.73
67803;BME280;72185;51.378;-1.342;2023-08-24T12:09:35;99849.53;;;26.58;34.66
67803;BME280;72185;51.378;-1.342;2023-08-24T12:12:00;99842.77;;;26.71;34.78
67803;BME280;72185;51.378;-1.342;2023-08-24T12:14:25;99842.39;;;26.47;34.80
67803;BME280;72185;51.378;-1.342;2023-08-24T12:16:50;99845.66;;;26.72;34.78
67803;BME280;72185;51.378;-1.342;2023-08-24T12:19:16;99843.79;;;26.75;34.76
67803;BME280;72185;51.378;-1.342;2023-08-24T12:21:43;99840.32;;;26.69;34.82
67803;BME280;72185;51.378;-1.342;2023-08-24T12:24:06;99834.89;;;26.39;34.92
67803;BME280;72185;51.378;-1.342;2023-08-24T12:26:33;99830.19;;;26.46;34.83
67803;BME280;72185;51.378;-1.342;2023-08-24T12:29:01;99829.21;;;26.44;34.86
67803;BME280;72185;51.378;-1.342;2023-08-24T12:31:27;99834.57;;;26.76;34.76
67803;BME280;72185;51.378;-1.342;2023-08-24T12:36:13;99820.86;;;26.47;34.84
67803;BME280;72185;51.378;-1.342;2023-08-24T12:38:38;99817.70;;;26.67;34.85
67803;BME280;72185;51.378;-1.342;2023-08-24T12:41:04;99819.05;;;26.53;34.78
67803;BME280;72185;51.378;-1.342;2023-08-24T12:43:29;99819.32;;;26.44;34.88
67803;BME280;72185;51.378;-1.342;2023-08-24T12:45:54;99816.96;;;26.46;34.86